sensor_id;sensor_type;location;lat;lon;timestamp;temperature;humidity
21551;DHT22;10936;49.836;7.078;2023-01-04T06:01:47;20.20;94.70
21551;DHT22;10936;49.836;7.078;2023-01-04T06:04:12;20.20;94.70
21551;DHT22;10936;49.836;7.078;2023-01-04T06:06:38;20.20;94.80
21551;DHT22;10936;49.836;7.078;2023-01-04T06:09:03;20.20;94.80
21551;DHT22;10936;49.836;7.078;2023-01-04T06:11:29;20.10;94.80
21551;DHT22;10936;49.836;7.078;2023-01-04T06:13:54;20.20;94.80
21551;DHT22;10936;49.836;7.078;2023-01-04T06:16:20;20.20;94.80
21551;DHT22;10936;49.836;7.078;2023-01-04T06:18:45;20.20;94.80
21551;DHT22;10936;49.836;7.078;2023-01-04T06:21:11;20.20;94.80
21551;DHT22;10936;49.836;7.078;2023-01-04T06:23:37;20.20;94.80
21551;DHT22;10936;49.836;7.078;2023-01-04T06:26:02;20.20;94.80
21551;DHT22;10936;49.836;7.078;2023-01-04T06:28:28;20.20;94.80
21551;DHT22;10936;49.836;7.078;2023-01-04T06:30:54;20.10;94.80
21551;DHT22;10936;49.836;7.078;2023-01-04T06:33:19;20.20;94.80
21551;DHT22;10936;49.836;7.078;2023-01-04T06:35:55;20.20;94.80
21551;DHT22;10936;49.836;7.078;2023-01-04T06:38:21;20.20;94.80
21551;DHT22;10936;49.836;7.078;2023-01-04T06:40:46;20.20;94.80
21551;DHT22;10936;49.836;7.078;2023-01-04T06:43:12;20.20;94.80
21551;DHT22;10936;49.836;7.078;2023-01-04T06:45:37;20.20;94.80
21551;DHT22;10936;49.836;7.078;2023-01-04T06:48:03;20.20;94.80
21551;DHT22;10936;49.836;7.078;2023-01-04T06:50:29;20.20;94.80
21551;DHT22;10936;49.836;7.078;2023-01-04T06:52:54;20.20;94.80
21551;DHT22;10936;49.836;7.078;2023-01-04T06:55:20;20.20;94.80
21551;DHT22;10936;49.836;7.078;2023-01-04T06:57:46;20.20;94.80
21551;DHT22;10936;49.836;7.078;2023-01-04T07:00:12;20.20;94.80
21551;DHT22;10936;49.836;7.078;2023-01-04T07:02:37;20.10;94.80
21551;DHT22;10936;49.836;7.078;2023-01-04T07:05:03;20.20;94.80
21551;DHT22;10936;49.836;7.078;2023-01-04T07:07:29;20.20;94.90
21551;DHT22;10936;49.836;7.078;2023-01-04T07:09:56;20.10;94.90
21551;DHT22;10936;49.836;7.078;2023-01-04T07:12:21;20.20;95.00
21551;DHT22;10936;49.836;7.078;2023-01-04T07:14:47;20.20;95.00
21551;DHT22;10936;49.836;7.078;2023-01-04T07:17:13;20.20;95.00
21551;DHT22;10936;49.836;7.078;2023-01-04T07:19:39;20.20;95.00
21551;DHT22;10936;49.836;7.078;2023-01-04T07:22:04;20.20;95.00
21551;DHT22;10936;49.836;7.078;2023-01-04T07:24:30;20.20;95.00
21551;DHT22;10936;49.836;7.078;2023-01-04T07:26:55;20.20;95.00
21551;DHT22;10936;49.836;7.078;2023-01-04T07:29:21;20.30;95.00
21551;DHT22;10936;49.836;7.078;2023-01-04T07:31:48;20.20;95.00
21551;DHT22;10936;49.836;7.078;2023-01-04T07:34:16;20.30;95.10
21551;DHT22;10936;49.836;7.078;2023-01-04T07:36:42;20.20;95.10
21551;DHT22;10936;49.836;7.078;2023-01-04T07:39:09;20.20;95.00
21551;DHT22;10936;49.836;7.078;2023-01-04T07:41:37;20.30;95.10
21551;DHT22;10936;49.836;7.078;2023-01-04T07:44:03;20.30;95.10
21551;DHT22;10936;49.836;7.078;2023-01-04T07:46:29;20.20;95.00
21551;DHT22;10936;49.836;7.078;2023-01-04T07:48:55;20.30;95.10
21551;DHT22;10936;49.836;7.078;2023-01-04T07:51:21;20.30;95.10
21551;DHT22;10936;49.836;7.078;2023-01-04T07:53:46;20.30;95.10
21551;DHT22;10936;49.836;7.078;2023-01-04T07:56:12;20.30;95.10
21551;DHT22;10936;49.836;7.078;2023-01-04T07:58:37;20.30;95.00
21551;DHT22;10936;49.836;7.078;2023-01-04T08:01:24;20.30;95.00
21551;DHT22;10936;49.836;7.078;2023-01-04T08:03:51;20.30;95.00
21551;DHT22;10936;49.836;7.078;2023-01-04T08:06:18;20.30;95.00
21551;DHT22;10936;49.836;7.078;2023-01-04T08:08:44;20.30;94.90
21551;DHT22;10936;49.836;7.078;2023-01-04T08:11:13;20.30;95.00
21551;DHT22;10936;49.836;7.078;2023-01-04T08:13:39;20.30;94.90
21551;DHT22;10936;49.836;7.078;2023-01-04T08:16:05;20.30;94.90
21551;DHT22;10936;49.836;7.078;2023-01-04T08:18:31;20.30;94.90
21551;DHT22;10936;49.836;7.078;2023-01-04T08:21:04;20.30;94.90
21551;DHT22;10936;49.836;7.078;2023-01-04T08:23:31;20.30;95.00
21551;DHT22;10936;49.836;7.078;2023-01-04T08:26:09;20.30;95.00
21551;DHT22;10936;49.836;7.078;2023-01-04T08:28:36;20.30;95.00
21551;DHT22;10936;49.836;7.078;2023-01-04T08:31:11;20.30;95.00
21551;DHT22;10936;49.836;7.078;2023-01-04T08:33:37;20.30;95.00
21551;DHT22;10936;49.836;7.078;2023-01-04T08:36:07;20.40;95.00
21551;DHT22;10936;49.836;7.078;2023-01-04T08:38:33;20.30;94.90
21551;DHT22;10936;49.836;7.078;2023-01-04T08:40:58;20.40;94.90
21551;DHT22;10936;49.836;7.078;2023-01-04T08:43:24;20.40;94.90
21551;DHT22;10936;49.836;7.078;2023-01-04T08:45:49;20.40;94.80
21551;DHT22;10936;49.836;7.078;2023-01-04T08:48:15;20.40;94.80
21551;DHT22;10936;49.836;7.078;2023-01-04T08:50:40;20.40;94.80
21551;DHT22;10936;49.836;7.078;2023-01-04T08:53:06;20.40;94.80
21551;DHT22;10936;49.836;7.078;2023-01-04T08:55:32;20.40;94.90
21551;DHT22;10936;49.836;7.078;2023-01-04T08:57:59;20.40;94.90
21551;DHT22;10936;49.836;7.078;2023-01-04T09:00:24;20.40;94.90
21551;DHT22;10936;49.836;7.078;2023-01-04T09:02:50;20.40;94.90
21551;DHT22;10936;49.836;7.078;2023-01-04T09:05:17;20.40;94.90
21551;DHT22;10936;49.836;7.078;2023-01-04T09:07:42;20.40;94.80
21551;DHT22;10936;49.836;7.078;2023-01-04T09:10:08;20.40;94.80
21551;DHT22;10936;49.836;7.078;2023-01-04T09:12:34;20.40;94.80
21551;DHT22;10936;49.836;7.078;2023-01-04T09:14:59;20.40;94.70
21551;DHT22;10936;49.836;7.078;2023-01-04T09:17:25;20.50;94.70
21551;DHT22;10936;49.836;7.078;2023-01-04T09:19:51;20.50;94.70
21551;DHT22;10936;49.836;7.078;2023-01-04T09:22:16;20.50;94.80
21551;DHT22;10936;49.836;7.078;2023-01-04T09:24:42;20.40;94.80
21551;DHT22;10936;49.836;7.078;2023-01-04T09:27:08;20.50;94.80
21551;DHT22;10936;49.836;7.078;2023-01-04T09:29:33;20.50;94.80
21551;DHT22;10936;49.836;7.078;2023-01-04T09:31:59;20.40;94.80
21551;DHT22;10936;49.836;7.078;2023-01-04T09:34:24;20.40;94.80
21551;DHT22;10936;49.836;7.078;2023-01-04T09:36:50;20.40;94.80
21551;DHT22;10936;49.836;7.078;2023-01-04T09:39:16;20.50;94.80
21551;DHT22;10936;49.836;7.078;2023-01-04T09:41:47;20.50;94.80
21551;DHT22;10936;49.836;7.078;2023-01-04T09:44:18;20.40;94.80
21551;DHT22;10936;49.836;7.078;2023-01-04T09:47:06;20.40;94.80
21551;DHT22;10936;49.836;7.078;2023-01-04T09:49:55;20.50;94.80
21551;DHT22;10936;49.836;7.078;2023-01-04T09:52:25;20.50;94.80
21551;DHT22;10936;49.836;7.078;2023-01-04T09:55:00;20.40;94.80
21551;DHT22;10936;49.836;7.078;2023-01-04T09:57:31;20.50;94.80
21551;DHT22;10936;49.836;7.078;2023-01-04T10:00:05;20.50;94.80
21551;DHT22;10936;49.836;7.078;2023-01-04T10:03:09;20.50;94.80
21551;DHT22;10936;49.836;7.078;2023-01-04T10:05:37;20.40;94.80
21551;DHT22;10936;49.836;7.078;2023-01-04T10:08:15;20.50;94.80
21551;DHT22;10936;49.836;7.078;2023-01-04T10:13:41;20.50;94.80
21551;DHT22;10936;49.836;7.078;2023-01-04T10:16:30;20.50;94.80
21551;DHT22;10936;49.836;7.078;2023-01-04T10:19:27;20.50;94.80
21551;DHT22;10936;49.836;7.078;2023-01-04T10:21:57;20.50;94.80
21551;DHT22;10936;49.836;7.078;2023-01-04T10:27:06;20.50;94.80
21551;DHT22;10936;49.836;7.078;2023-01-04T10:29:46;20.50;94.80
21551;DHT22;10936;49.836;7.078;2023-01-04T10:32:21;20.50;94.80
21551;DHT22;10936;49.836;7.078;2023-01-04T10:34:54;20.50;94.80
21551;DHT22;10936;49.836;7.078;2023-01-04T10:37:24;20.50;94.80
21551;DHT22;10936;49.836;7.078;2023-01-04T10:39:55;20.50;94.80
21551;DHT22;10936;49.836;7.078;2023-01-04T10:42:33;20.50;94.80
21551;DHT22;10936;49.836;7.078;2023-01-04T10:50:35;20.50;94.80
21551;DHT22;10936;49.836;7.078;2023-01-04T10:55:53;20.50;94.80
21551;DHT22;10936;49.836;7.078;2023-01-04T10:59:08;20.50;94.80
21551;DHT22;10936;49.836;7.078;2023-01-04T11:01:21;20.50;94.80
21551;DHT22;10936;49.836;7.078;2023-01-04T11:03:55;20.50;94.80
21551;DHT22;10936;49.836;7.078;2023-01-04T11:06:30;20.50;94.80
21551;DHT22;10936;49.836;7.078;2023-01-04T11:09:21;20.50;94.80
21551;DHT22;10936;49.836;7.078;2023-01-04T11:11:48;20.50;94.80
21551;DHT22;10936;49.836;7.078;2023-01-04T11:14:15;20.50;94.80
21551;DHT22;10936;49.836;7.078;2023-01-04T11:16:50;20.50;94.80
21551;DHT22;10936;49.836;7.078;2023-01-04T11:19:16;20.50;94.80
21551;DHT22;10936;49.836;7.078;2023-01-04T11:21:50;20.50;94.80
21551;DHT22;10936;49.836;7.078;2023-01-04T11:24:16;20.50;94.80
21551;DHT22;10936;49.836;7.078;2023-01-04T11:26:44;20.50;94.80
21551;DHT22;10936;49.836;7.078;2023-01-04T11:29:36;20.60;94.80
21551;DHT22;10936;49.836;7.078;2023-01-04T11:32:12;20.50;94.70
21551;DHT22;10936;49.836;7.078;2023-01-04T11:34:50;20.60;94.70
21551;DHT22;10936;49.836;7.078;2023-01-04T11:37:29;20.60;94.70
21551;DHT22;10936;49.836;7.078;2023-01-04T11:42:41;20.50;94.70
21551;DHT22;10936;49.836;7.078;2023-01-04T11:45:16;20.60;94.80
21551;DHT22;10936;49.836;7.078;2023-01-04T11:47:48;20.60;94.80
21551;DHT22;10936;49.836;7.078;2023-01-04T11:50:37;20.60;94.80
21551;DHT22;10936;49.836;7.078;2023-01-04T11:56:21;20.60;94.70
21551;DHT22;10936;49.836;7.078;2023-01-04T12:01:46;20.60;94.70
21551;DHT22;10936;49.836;7.078;2023-01-04T12:04:23;20.60;94.70
21551;DHT22;10936;49.836;7.078;2023-01-04T12:06:55;20.50;94.70
21551;DHT22;10936;49.836;7.078;2023-01-04T12:09:22;20.50;94.70
21551;DHT22;10936;49.836;7.078;2023-01-04T12:11:57;20.50;94.70
21551;DHT22;10936;49.836;7.078;2023-01-04T12:14:24;20.50;94.70
21551;DHT22;10936;49.836;7.078;2023-01-04T12:19:25;20.50;94.70
21551;DHT22;10936;49.836;7.078;2023-01-04T12:21:55;20.50;94.70
21551;DHT22;10936;49.836;7.078;2023-01-04T12:24:27;20.50;94.70
21551;DHT22;10936;49.836;7.078;2023-01-04T12:26:54;20.60;94.80
21551;DHT22;10936;49.836;7.078;2023-01-04T12:37:03;20.50;94.60
21551;DHT22;10936;49.836;7.078;2023-01-04T12:47:20;20.50;94.60
21551;DHT22;10936;49.836;7.078;2023-01-04T12:50:17;20.50;94.60
21551;DHT22;10936;49.836;7.078;2023-01-04T12:57:57;20.50;94.70
21551;DHT22;10936;49.836;7.078;2023-01-04T13:06:03;20.50;94.70
21551;DHT22;10936;49.836;7.078;2023-01-04T13:08:28;20.50;94.70
21551;DHT22;10936;49.836;7.078;2023-01-04T13:10:58;20.40;94.70
21551;DHT22;10936;49.836;7.078;2023-01-04T13:19:01;20.40;94.70
21551;DHT22;10936;49.836;7.078;2023-01-04T13:23:59;20.40;94.80
21551;DHT22;10936;49.836;7.078;2023-01-04T13:32:04;20.40;94.80
21551;DHT22;10936;49.836;7.078;2023-01-04T13:34:30;20.40;94.80
21551;DHT22;10936;49.836;7.078;2023-01-04T13:39:45;20.40;94.80
21551;DHT22;10936;49.836;7.078;2023-01-04T13:42:25;20.40;94.80
21551;DHT22;10936;49.836;7.078;2023-01-04T13:45:53;20.40;94.90
21551;DHT22;10936;49.836;7.078;2023-01-04T13:47:54;20.40;94.90
21551;DHT22;10936;49.836;7.078;2023-01-04T13:50:33;20.40;95.00
21551;DHT22;10936;49.836;7.078;2023-01-04T13:53:00;20.40;94.90
21551;DHT22;10936;49.836;7.078;2023-01-04T13:55:31;20.40;94.90
21551;DHT22;10936;49.836;7.078;2023-01-04T13:58:03;20.40;94.80
21551;DHT22;10936;49.836;7.078;2023-01-04T14:00:45;20.40;94.90
21551;DHT22;10936;49.836;7.078;2023-01-04T14:05:47;20.40;94.90
21551;DHT22;10936;49.836;7.078;2023-01-04T14:08:19;20.40;94.90
21551;DHT22;10936;49.836;7.078;2023-01-04T14:10:45;20.40;94.90
21551;DHT22;10936;49.836;7.078;2023-01-04T14:13:18;20.40;94.90
21551;DHT22;10936;49.836;7.078;2023-01-04T14:15:44;20.30;94.80
21551;DHT22;10936;49.836;7.078;2023-01-04T14:18:25;20.30;94.80
21551;DHT22;10936;49.836;7.078;2023-01-04T14:20:51;20.30;94.90
21551;DHT22;10936;49.836;7.078;2023-01-04T14:23:26;20.30;94.90
21551;DHT22;10936;49.836;7.078;2023-01-04T14:25:52;20.30;94.90
21551;DHT22;10936;49.836;7.078;2023-01-04T14:36:26;20.30;94.90
21551;DHT22;10936;49.836;7.078;2023-01-04T14:41:36;20.30;94.90
21551;DHT22;10936;49.836;7.078;2023-01-04T14:44:17;20.30;94.90
21551;DHT22;10936;49.836;7.078;2023-01-04T14:46:48;20.30;94.90
21551;DHT22;10936;49.836;7.078;2023-01-04T14:49:15;20.30;94.90
21551;DHT22;10936;49.836;7.078;2023-01-04T14:51:50;20.30;95.00
21551;DHT22;10936;49.836;7.078;2023-01-04T14:54:17;20.30;94.90
21551;DHT22;10936;49.836;7.078;2023-01-04T14:56:43;20.30;95.00
21551;DHT22;10936;49.836;7.078;2023-01-04T14:59:09;20.30;94.90
21551;DHT22;10936;49.836;7.078;2023-01-04T15:01:36;20.30;95.00
21551;DHT22;10936;49.836;7.078;2023-01-04T15:04:03;20.30;95.00
21551;DHT22;10936;49.836;7.078;2023-01-04T15:06:29;20.20;94.90
21551;DHT22;10936;49.836;7.078;2023-01-04T15:08:54;20.30;95.00
21551;DHT22;10936;49.836;7.078;2023-01-04T15:11:20;20.30;95.00
21551;DHT22;10936;49.836;7.078;2023-01-04T15:13:45;20.20;94.90
21551;DHT22;10936;49.836;7.078;2023-01-04T15:16:13;20.20;94.90
21551;DHT22;10936;49.836;7.078;2023-01-04T15:18:39;20.30;95.00
21551;DHT22;10936;49.836;7.078;2023-01-04T15:21:05;20.30;95.00
21551;DHT22;10936;49.836;7.078;2023-01-04T15:23:31;20.30;95.00
21551;DHT22;10936;49.836;7.078;2023-01-04T15:25:57;20.30;95.30
21551;DHT22;10936;49.836;7.078;2023-01-04T15:28:26;20.30;95.00
21551;DHT22;10936;49.836;7.078;2023-01-04T15:30:52;20.30;95.00
21551;DHT22;10936;49.836;7.078;2023-01-04T15:33:17;20.20;95.00
21551;DHT22;10936;49.836;7.078;2023-01-04T15:35:44;20.20;95.00
21551;DHT22;10936;49.836;7.078;2023-01-04T15:38:10;20.20;95.00
21551;DHT22;10936;49.836;7.078;2023-01-04T15:40:35;20.20;95.00
21551;DHT22;10936;49.836;7.078;2023-01-04T15:43:01;20.20;95.00
21551;DHT22;10936;49.836;7.078;2023-01-04T15:45:38;20.20;95.00
21551;DHT22;10936;49.836;7.078;2023-01-04T15:48:08;20.20;95.00
21551;DHT22;10936;49.836;7.078;2023-01-04T15:50:39;20.20;95.00
21551;DHT22;10936;49.836;7.078;2023-01-04T15:53:06;20.20;95.00
21551;DHT22;10936;49.836;7.078;2023-01-04T15:55:33;20.20;95.00
21551;DHT22;10936;49.836;7.078;2023-01-04T15:57:59;20.20;95.00
21551;DHT22;10936;49.836;7.078;2023-01-04T16:00:24;20.20;95.00
21551;DHT22;10936;49.836;7.078;2023-01-04T16:02:50;20.20;95.00
21551;DHT22;10936;49.836;7.078;2023-01-04T16:05:16;20.20;95.00
21551;DHT22;10936;49.836;7.078;2023-01-04T16:07:42;20.20;95.00
21551;DHT22;10936;49.836;7.078;2023-01-04T16:10:09;20.20;95.00
21551;DHT22;10936;49.836;7.078;2023-01-04T16:12:35;20.20;95.00
21551;DHT22;10936;49.836;7.078;2023-01-04T16:15:09;20.20;95.00
21551;DHT22;10936;49.836;7.078;2023-01-04T16:17:35;20.20;95.00
21551;DHT22;10936;49.836;7.078;2023-01-04T16:20:01;20.20;95.00
21551;DHT22;10936;49.836;7.078;2023-01-04T16:22:27;20.20;95.00
21551;DHT22;10936;49.836;7.078;2023-01-04T16:24:53;20.20;95.00
21551;DHT22;10936;49.836;7.078;2023-01-04T16:27:18;20.20;95.00
21551;DHT22;10936;49.836;7.078;2023-01-04T16:29:44;20.20;95.00
21551;DHT22;10936;49.836;7.078;2023-01-04T16:32:09;20.20;95.10
21551;DHT22;10936;49.836;7.078;2023-01-04T16:34:35;20.20;95.10
21551;DHT22;10936;49.836;7.078;2023-01-04T16:37:01;20.20;95.20
21551;DHT22;10936;49.836;7.078;2023-01-04T16:39:27;20.20;95.10
21551;DHT22;10936;49.836;7.078;2023-01-04T16:41:52;20.20;95.10
21551;DHT22;10936;49.836;7.078;2023-01-04T16:44:18;20.20;95.10
21551;DHT22;10936;49.836;7.078;2023-01-04T16:46:44;20.20;95.10
21551;DHT22;10936;49.836;7.078;2023-01-04T16:49:14;20.20;95.10
21551;DHT22;10936;49.836;7.078;2023-01-04T16:51:43;20.20;95.10
21551;DHT22;10936;49.836;7.078;2023-01-04T16:54:10;20.20;95.10
21551;DHT22;10936;49.836;7.078;2023-01-04T16:56:37;20.20;95.10
21551;DHT22;10936;49.836;7.078;2023-01-04T16:59:04;20.10;95.10
21551;DHT22;10936;49.836;7.078;2023-01-04T17:01:32;20.20;95.10
21551;DHT22;10936;49.836;7.078;2023-01-04T17:04:00;20.20;95.10
21551;DHT22;10936;49.836;7.078;2023-01-04T17:06:31;20.20;95.10
21551;DHT22;10936;49.836;7.078;2023-01-04T17:08:58;20.20;95.10
21551;DHT22;10936;49.836;7.078;2023-01-04T17:11:28;20.20;95.10
21551;DHT22;10936;49.836;7.078;2023-01-04T17:13:55;20.20;95.10
21551;DHT22;10936;49.836;7.078;2023-01-04T17:16:21;20.20;95.20
21551;DHT22;10936;49.836;7.078;2023-01-04T17:18:48;20.20;95.10
21551;DHT22;10936;49.836;7.078;2023-01-04T17:21:16;20.20;95.20
21551;DHT22;10936;49.836;7.078;2023-01-04T17:23:45;20.20;95.20
21551;DHT22;10936;49.836;7.078;2023-01-04T17:26:17;20.20;95.20
21551;DHT22;10936;49.836;7.078;2023-01-04T17:28:43;20.10;95.10
21551;DHT22;10936;49.836;7.078;2023-01-04T17:31:20;20.20;95.20
21551;DHT22;10936;49.836;7.078;2023-01-04T17:33:47;20.10;95.20
21551;DHT22;10936;49.836;7.078;2023-01-04T17:36:14;20.10;95.20
21551;DHT22;10936;49.836;7.078;2023-01-04T17:38:40;20.20;95.30
21551;DHT22;10936;49.836;7.078;2023-01-04T17:41:14;20.20;95.20
21551;DHT22;10936;49.836;7.078;2023-01-04T17:43:41;20.20;95.20
21551;DHT22;10936;49.836;7.078;2023-01-04T17:46:13;20.20;95.20
21551;DHT22;10936;49.836;7.078;2023-01-04T17:48:39;20.10;95.20
21551;DHT22;10936;49.836;7.078;2023-01-04T17:51:16;20.20;95.20
21551;DHT22;10936;49.836;7.078;2023-01-04T17:53:43;20.10;95.20
21551;DHT22;10936;49.836;7.078;2023-01-04T17:56:17;20.10;95.20
21551;DHT22;10936;49.836;7.078;2023-01-04T17:58:44;20.10;95.20
21551;DHT22;10936;49.836;7.078;2023-01-04T18:01:21;20.10;95.20
21551;DHT22;10936;49.836;7.078;2023-01-04T18:03:50;20.20;95.30
21551;DHT22;10936;49.836;7.078;2023-01-04T18:06:17;20.10;95.20
21551;DHT22;10936;49.836;7.078;2023-01-04T18:08:43;20.20;95.30
21551;DHT22;10936;49.836;7.078;2023-01-04T18:11:10;20.10;95.20
21551;DHT22;10936;49.836;7.078;2023-01-04T18:13:38;20.10;95.20
21551;DHT22;10936;49.836;7.078;2023-01-04T18:16:06;20.10;95.20
21551;DHT22;10936;49.836;7.078;2023-01-04T18:18:33;20.10;95.30
21551;DHT22;10936;49.836;7.078;2023-01-04T18:21:19;20.10;95.20
21551;DHT22;10936;49.836;7.078;2023-01-04T18:23:46;20.10;95.30
21551;DHT22;10936;49.836;7.078;2023-01-04T18:26:13;20.10;95.30
21551;DHT22;10936;49.836;7.078;2023-01-04T18:28:39;20.10;95.30
21551;DHT22;10936;49.836;7.078;2023-01-04T18:31:14;20.10;95.30
21551;DHT22;10936;49.836;7.078;2023-01-04T18:33:40;20.10;95.30
21551;DHT22;10936;49.836;7.078;2023-01-04T18:36:08;20.10;95.30
21551;DHT22;10936;49.836;7.078;2023-01-04T18:38:34;20.10;95.30
21551;DHT22;10936;49.836;7.078;2023-01-04T18:41:06;20.10;95.30
21551;DHT22;10936;49.836;7.078;2023-01-04T18:43:32;20.10;95.30
21551;DHT22;10936;49.836;7.078;2023-01-04T18:46:00;20.10;95.30
21551;DHT22;10936;49.836;7.078;2023-01-04T18:48:26;20.10;95.30
21551;DHT22;10936;49.836;7.078;2023-01-04T18:50:51;20.10;95.30
21551;DHT22;10936;49.836;7.078;2023-01-04T18:53:17;20.10;95.40
21551;DHT22;10936;49.836;7.078;2023-01-04T18:55:42;20.10;95.40
21551;DHT22;10936;49.836;7.078;2023-01-04T18:58:08;20.10;95.40
21551;DHT22;10936;49.836;7.078;2023-01-04T19:00:33;20.10;95.40
21551;DHT22;10936;49.836;7.078;2023-01-04T19:02:59;20.10;95.40
21551;DHT22;10936;49.836;7.078;2023-01-04T19:05:25;20.10;95.40
21551;DHT22;10936;49.836;7.078;2023-01-04T19:07:53;20.10;95.40
21551;DHT22;10936;49.836;7.078;2023-01-04T19:10:19;20.10;95.40
21551;DHT22;10936;49.836;7.078;2023-01-04T19:12:44;20.10;95.40
21551;DHT22;10936;49.836;7.078;2023-01-04T19:15:10;20.10;95.50
21551;DHT22;10936;49.836;7.078;2023-01-04T19:17:36;20.10;95.50
21551;DHT22;10936;49.836;7.078;2023-01-04T19:20:01;20.10;95.50
21551;DHT22;10936;49.836;7.078;2023-01-04T19:22:27;20.10;95.50
21551;DHT22;10936;49.836;7.078;2023-01-04T19:24:53;20.10;95.50
21551;DHT22;10936;49.836;7.078;2023-01-04T19:27:18;20.10;95.50
21551;DHT22;10936;49.836;7.078;2023-01-04T19:29:44;20.10;95.50
21551;DHT22;10936;49.836;7.078;2023-01-04T19:32:11;20.10;95.50
21551;DHT22;10936;49.836;7.078;2023-01-04T19:34:36;20.10;95.50
21551;DHT22;10936;49.836;7.078;2023-01-04T19:37:02;20.10;95.50
21551;DHT22;10936;49.836;7.078;2023-01-04T19:39:28;20.10;95.50
21551;DHT22;10936;49.836;7.078;2023-01-04T19:41:53;20.10;95.60
21551;DHT22;10936;49.836;7.078;2023-01-04T19:44:19;20.10;95.60
21551;DHT22;10936;49.836;7.078;2023-01-04T19:46:44;20.10;95.50
21551;DHT22;10936;49.836;7.078;2023-01-04T19:49:10;20.10;95.60
21551;DHT22;10936;49.836;7.078;2023-01-04T19:51:36;20.10;95.50
21551;DHT22;10936;49.836;7.078;2023-01-04T19:54:01;20.10;95.60
21551;DHT22;10936;49.836;7.078;2023-01-04T19:56:27;20.10;95.60
21551;DHT22;10936;49.836;7.078;2023-01-04T19:58:52;20.10;95.60
21551;DHT22;10936;49.836;7.078;2023-01-04T20:01:20;20.10;95.60
21551;DHT22;10936;49.836;7.078;2023-01-04T20:03:46;20.10;95.60
21551;DHT22;10936;49.836;7.078;2023-01-04T20:06:13;20.10;95.60
21551;DHT22;10936;49.836;7.078;2023-01-04T20:08:40;20.10;95.60
21551;DHT22;10936;49.836;7.078;2023-01-04T20:11:06;20.10;95.60
21551;DHT22;10936;49.836;7.078;2023-01-04T20:13:32;20.10;95.60
21551;DHT22;10936;49.836;7.078;2023-01-04T20:16:02;20.10;96.00
21551;DHT22;10936;49.836;7.078;2023-01-04T20:18:31;20.10;95.60
21551;DHT22;10936;49.836;7.078;2023-01-04T20:20:57;20.10;95.60
21551;DHT22;10936;49.836;7.078;2023-01-04T20:23:23;20.10;95.70
21551;DHT22;10936;49.836;7.078;2023-01-04T20:25:50;20.10;95.70
21551;DHT22;10936;49.836;7.078;2023-01-04T20:28:17;20.20;95.80
21551;DHT22;10936;49.836;7.078;2023-01-04T20:30:44;20.10;95.70
21551;DHT22;10936;49.836;7.078;2023-01-04T20:33:09;20.20;95.70
21551;DHT22;10936;49.836;7.078;2023-01-04T20:35:41;20.20;95.70
21551;DHT22;10936;49.836;7.078;2023-01-04T20:38:08;20.10;95.70
21551;DHT22;10936;49.836;7.078;2023-01-04T20:40:35;20.10;95.70
21551;DHT22;10936;49.836;7.078;2023-01-04T20:43:01;20.10;95.70
21551;DHT22;10936;49.836;7.078;2023-01-04T20:45:46;20.10;95.70
21551;DHT22;10936;49.836;7.078;2023-01-04T20:48:13;20.10;95.80
21551;DHT22;10936;49.836;7.078;2023-01-04T20:50:39;20.10;95.80
21551;DHT22;10936;49.836;7.078;2023-01-04T20:53:05;20.20;95.80
21551;DHT22;10936;49.836;7.078;2023-01-04T20:55:30;20.10;95.80
21551;DHT22;10936;49.836;7.078;2023-01-04T20:57:56;20.10;95.80
21551;DHT22;10936;49.836;7.078;2023-01-04T21:00:21;20.20;95.90
21551;DHT22;10936;49.836;7.078;2023-01-04T21:02:47;20.10;95.90
21551;DHT22;10936;49.836;7.078;2023-01-04T21:05:13;20.10;95.90
21551;DHT22;10936;49.836;7.078;2023-01-04T21:07:38;20.10;95.90
21551;DHT22;10936;49.836;7.078;2023-01-04T21:10:04;20.10;95.90
21551;DHT22;10936;49.836;7.078;2023-01-04T21:12:30;20.10;95.90
21551;DHT22;10936;49.836;7.078;2023-01-04T21:14:57;20.10;95.90
21551;DHT22;10936;49.836;7.078;2023-01-04T21:17:22;20.10;95.90
21551;DHT22;10936;49.836;7.078;2023-01-04T21:19:48;20.10;95.90
21551;DHT22;10936;49.836;7.078;2023-01-04T21:22:13;20.10;95.90
21551;DHT22;10936;49.836;7.078;2023-01-04T21:24:39;20.10;95.90
21551;DHT22;10936;49.836;7.078;2023-01-04T21:27:05;20.10;95.90
21551;DHT22;10936;49.836;7.078;2023-01-04T21:29:30;20.10;95.90
21551;DHT22;10936;49.836;7.078;2023-01-04T21:31:56;20.10;95.90
21551;DHT22;10936;49.836;7.078;2023-01-04T21:34:22;20.10;95.90
21551;DHT22;10936;49.836;7.078;2023-01-04T21:36:48;20.10;95.90
21551;DHT22;10936;49.836;7.078;2023-01-04T21:39:13;20.10;95.90
21551;DHT22;10936;49.836;7.078;2023-01-04T21:41:39;20.10;95.90
21551;DHT22;10936;49.836;7.078;2023-01-04T21:44:06;20.10;95.90
21551;DHT22;10936;49.836;7.078;2023-01-04T21:46:32;20.10;95.90
21551;DHT22;10936;49.836;7.078;2023-01-04T21:48:59;20.10;95.90
21551;DHT22;10936;49.836;7.078;2023-01-04T21:51:26;20.10;95.90
21551;DHT22;10936;49.836;7.078;2023-01-04T21:53:52;20.10;95.90
21551;DHT22;10936;49.836;7.078;2023-01-04T21:56:20;20.10;95.90
21551;DHT22;10936;49.836;7.078;2023-01-04T21:58:46;20.10;95.90
21551;DHT22;10936;49.836;7.078;2023-01-04T22:01:20;20.10;95.90
21551;DHT22;10936;49.836;7.078;2023-01-04T22:03:46;20.10;95.90
21551;DHT22;10936;49.836;7.078;2023-01-04T22:06:12;20.00;95.90
21551;DHT22;10936;49.836;7.078;2023-01-04T22:08:38;20.10;95.90
21551;DHT22;10936;49.836;7.078;2023-01-04T22:11:04;20.10;95.90
21551;DHT22;10936;49.836;7.078;2023-01-04T22:13:32;20.00;95.90
21551;DHT22;10936;49.836;7.078;2023-01-04T22:15:57;20.10;96.00
21551;DHT22;10936;49.836;7.078;2023-01-04T22:18:23;20.10;96.00
21551;DHT22;10936;49.836;7.078;2023-01-04T22:20:48;20.10;95.90
21551;DHT22;10936;49.836;7.078;2023-01-04T22:23:14;20.00;95.90
21551;DHT22;10936;49.836;7.078;2023-01-04T22:25:39;20.10;96.00
21551;DHT22;10936;49.836;7.078;2023-01-04T22:28:05;20.00;96.00
